KLEX/LEX METAR and TAF weather

Enter ICAO airport designator
Station Type Date Time Source
KLEX METAR 2022/11/27 07:54 UTC NOAA

KLEX 270754Z 14012KT 10SM -RA FEW050 BKN070 OVC110 10/08 A2967 RMK AO2 SLP044 P0006 T01000078


Station Type Date Time Source
KLEX Decoded METAR 2022/11/27 07:54 UTC NOAA

LEXINGTON BLUE GRASS AIRPORT, KY, United States (KLEX) 38-02N 084-36W 300M
Nov 27, 2022 - 02:54 AM EST / 2022.11.27 0754 UTC
Wind: from the SE (140 degrees) at 14 MPH (12 KT):0
Visibility: 10 mile(s):0
Sky conditions: overcast
Weather: light rain
Precipitation last hour: 0.06 inches
Temperature: 50.0 F (10.0 C)
Dew Point: 46.0 F (7.8 C)
Relative Humidity: 86%
Pressure (altimeter): 29.67 in. Hg (1004 hPa)
ob: KLEX 270754Z 14012KT 10SM -RA FEW050 BKN070 OVC110 10/08 A2967 RMK AO2 SLP044 P0006 T01000078
cycle: 8

Station Type Date Time Source
KLEX TAF 2022/11/27 06:27 UTC NOAA

TAF KLEX 270523Z 2706/2806 14011KT P6SM -RA OVC050
FM270900 14014KT 6SM -SHRA BKN025 WS020/15044KT
FM271100 14016G23KT 6SM -SHRA BKN017 WS020/16045KT
FM271300 19020G27KT P6SM VCSH BKN017
FM271500 21025G40KT P6SM VCSH OVC022
FM271900 22020G33KT P6SM VCSH OVC015
FM280000 24015G23KT P6SM VCSH OVC007

Example: see airport list